Coulee Dam, WA (99116)

11:07 AM PDT on July 31, 2014 (GMT -0700)
3 miles ESE of Grand Coulee Dam, in Lincoln County, WA (KWAGRAND5) Elev 1575 ft | 47.92 °N, 118.94 °W | Change Station

Current weather conditions updated 51 minutes ago

Clear
Clear
82.2 °F
Feels Like 80 °F
N
0.0
Wind Variable Wind from ENE
Gusts 3.0 mph

Today is forecast to be nearly the same temperature as yesterday.

Today
High -- | Low -- °F
--% Chance of Precip.
Yesterday
High -- | Low -- °F
Precip. -- in
5:31 AM 8:32 PM
Waxing Crescent, 20% visible
Pressure 29.99 in
Visibility 10.0 miles
Clouds Clear
Heat Index 80 °F
Dew Point 43 °F
Humidity 25%
Rainfall 0.00 in
Snow Depth Not available.
UV 7 out of 12
Pollen 6.50 out of 12
Air Quality Not available.
Flu Activity Not available.
METAR KOMK 311753Z AUTO 01014KT 10SM CLR 33/03 A3002 RMK AO2 SLP155 T03280028 10328 20206 58005

More Conditions Fewer Conditions

Pressure 29.99 in
Visibility 10.0 miles
Clouds Clear
Heat Index 80 °F
Dew Point 43 °F
Humidity 25%
Rainfall 0.00 in
Snow Depth Not available.
UV 7 out of 12
Pollen 6.50 out of 12
Air Quality Not available.
Flu Activity Not available.
METAR KOMK 311753Z AUTO 01014KT 10SM CLR 33/03 A3002 RMK AO2 SLP155 T03280028 10328 20206 58005

More Conditions Fewer Conditions

10-Day Weather Forecast

Almanac

Astronomy

Jul. 31, 2014 Rise Set
Actual Time 5:31 AM PDT 8:32 PM PDT
Civil Twilight 4:54 AM PDT 9:09 PM PDT
Nautical Twilight 4:07 AM PDT 9:56 PM PDT
Astronomical Twilight 3:08 AM PDT 10:53 PM PDT
Moon 10:27 AM PDT 10:21 PM PDT
Length of Visible Light 16h 14m
Length of Day
15h 01m
Tomorrow will be 2m 42s shorter.
Waxing Crescent, 20% of the Moon is Illuminated
Today
Waxing Crescent
Aug 3
First Quarter
Aug 10
Full
Aug 17
Last Quarter
Aug 25
New

Today's Extremes

State Highs State Lows

Community

WunderPhotos

Upload Photos

1,739,397 photos uploaded!

Nearby

Snow Depth

Station Depth Elevation
Moses Mountain 1 in 5300 ft
Trough 0 in 5300 ft
Grouse Camp 0 in 5380 ft
Quartz Peak 1 in 4700 ft
Rainy Pass 0 in 4780 ft

Earthquake Activity

City Distance Mag. Time & Date
No recent earthquake activity has been reported nearby.
Minimum magnitude displayed is 2.5.

Coastal Water Temperatures

Place Temperature
No Stations Reporting

Nearby Weather Stations

Station Location Temp. Heat Index Dew Point Humidity Wind Precip. Elev Updated Type
RAWS , Coulee Dam, WA - - - 32% South  at  3 mph 0.00 in / hr 1339 ft 9:37 AM PDT MADIS
3 miles ESE of Grand Coulee Dam, in Linc, Grand Coulee, WA 82.2 °F 80 °F 43 °F 25% ENE  at  0.0 mph 0.00 in / hr 1575 ft 10:15 AM PDT Normal
MesoWest Coulee Dam West , Electric City, WA 74 °F 76 °F 34 °F 23% SE  at  13 mph 0.00 in / hr 2562 ft 8:15 AM PDT MADIS

Show More Stations Show Fewer Stations